createdAt,value
2018-08-22T00:00:38.201Z,0
2018-08-22T00:01:18.607Z,0
2018-08-22T00:01:58.993Z,0
2018-08-22T00:02:39.399Z,0
2018-08-22T00:03:19.786Z,0
2018-08-22T00:04:00.181Z,0
2018-08-22T00:04:40.627Z,0
2018-08-22T00:05:21.010Z,0
2018-08-22T00:06:01.356Z,0
2018-08-22T00:06:41.756Z,0
2018-08-22T00:07:22.173Z,0
2018-08-22T00:08:02.510Z,0
2018-08-22T00:08:43.039Z,0
2018-08-22T00:09:23.299Z,0
2018-08-22T00:10:03.735Z,0
2018-08-22T00:10:44.106Z,0
2018-08-22T00:11:24.544Z,0
2018-08-22T00:12:04.946Z,0
2018-08-22T00:12:45.313Z,0
2018-08-22T00:13:25.746Z,0
2018-08-22T00:14:06.163Z,0
2018-08-22T00:14:46.539Z,0
2018-08-22T00:15:26.957Z,0
2018-08-22T00:16:07.307Z,0
2018-08-22T00:16:47.780Z,0
2018-08-22T00:17:28.153Z,0
2018-08-22T00:18:08.559Z,0
2018-08-22T00:18:48.950Z,0
2018-08-22T00:19:29.364Z,0
2018-08-22T00:20:09.714Z,0
2018-08-22T00:20:50.145Z,0
2018-08-22T00:21:30.529Z,0
2018-08-22T00:22:10.910Z,0
2018-08-22T00:22:51.349Z,0
2018-08-22T00:23:31.721Z,0
2018-08-22T00:24:12.093Z,0
2018-08-22T00:24:52.483Z,0
2018-08-22T00:25:32.868Z,0
2018-08-22T00:26:13.291Z,0
2018-08-22T00:26:53.726Z,0
2018-08-22T00:27:34.061Z,0
2018-08-22T00:28:14.458Z,0
2018-08-22T00:28:54.891Z,0
2018-08-22T00:29:35.269Z,0
2018-08-22T00:30:15.724Z,0
2018-08-22T00:30:56.130Z,0
2018-08-22T00:31:36.496Z,0
2018-08-22T00:32:16.899Z,0
2018-08-22T00:32:57.280Z,0
2018-08-22T00:33:37.691Z,0
2018-08-22T00:34:18.126Z,0
2018-08-22T00:34:58.475Z,0
2018-08-22T00:35:38.893Z,0
2018-08-22T00:36:19.276Z,0
2018-08-22T00:36:59.680Z,0
2018-08-22T00:37:40.064Z,0
2018-08-22T00:38:20.532Z,0
2018-08-22T00:39:00.905Z,0
2018-08-22T00:39:41.285Z,0
2018-08-22T00:40:21.656Z,0
2018-08-22T00:41:02.102Z,0
2018-08-22T00:41:42.484Z,0
2018-08-22T00:42:22.904Z,0
2018-08-22T00:43:03.261Z,0
2018-08-22T00:43:43.707Z,0
2018-08-22T00:44:24.101Z,0
2018-08-22T00:45:04.448Z,0
2018-08-22T00:45:44.882Z,0
2018-08-22T00:46:25.307Z,0
2018-08-22T00:47:05.773Z,0
2018-08-22T00:47:46.156Z,0
2018-08-22T00:48:26.531Z,0
2018-08-22T00:49:06.980Z,0
2018-08-22T00:49:47.370Z,0
2018-08-22T00:50:27.752Z,0
2018-08-22T00:51:08.143Z,0
2018-08-22T00:51:48.580Z,0
2018-08-22T00:52:28.940Z,0
2018-08-22T00:53:09.378Z,0
2018-08-22T00:53:49.752Z,0
2018-08-22T00:54:30.184Z,0
2018-08-22T00:55:10.619Z,0
2018-08-22T00:55:50.991Z,0
2018-08-22T00:56:31.389Z,0
2018-08-22T00:57:11.760Z,0
2018-08-22T00:57:52.190Z,0
2018-08-22T00:58:32.566Z,0
2018-08-22T00:59:12.983Z,0
2018-08-22T00:59:53.352Z,0
2018-08-22T01:00:33.778Z,0
2018-08-22T01:01:14.200Z,0
2018-08-22T01:01:54.564Z,0
2018-08-22T01:02:35.014Z,0
2018-08-22T01:03:15.426Z,0
2018-08-22T01:03:55.787Z,0
2018-08-22T01:04:36.224Z,0
2018-08-22T01:05:16.602Z,0
2018-08-22T01:05:56.970Z,0
2018-08-22T01:06:37.392Z,0
2018-08-22T01:07:17.840Z,0
2018-08-22T01:07:58.238Z,0
2018-08-22T01:08:38.610Z,0
2018-08-22T01:09:19.091Z,0
2018-08-22T01:09:59.432Z,0
2018-08-22T01:10:39.845Z,0
2018-08-22T01:11:20.319Z,0
2018-08-22T01:12:00.691Z,0
2018-08-22T01:12:41.095Z,0
2018-08-22T01:13:21.553Z,0
2018-08-22T01:14:01.912Z,0
2018-08-22T01:14:42.362Z,0
2018-08-22T01:15:22.849Z,0
2018-08-22T01:16:03.215Z,0
2018-08-22T01:16:43.625Z,0
2018-08-22T01:17:24.050Z,0
2018-08-22T01:18:04.476Z,0
2018-08-22T01:18:44.933Z,0
2018-08-22T01:19:25.346Z,0
2018-08-22T01:20:05.763Z,0
2018-08-22T01:20:46.132Z,0
2018-08-22T01:21:26.620Z,0
2018-08-22T01:22:06.962Z,0
2018-08-22T01:22:47.378Z,0
2018-08-22T01:23:27.760Z,0
2018-08-22T01:24:08.195Z,0
2018-08-22T01:24:48.654Z,0
2018-08-22T01:25:29.020Z,0
2018-08-22T01:26:09.479Z,0
2018-08-22T01:26:49.831Z,0
2018-08-22T01:27:30.244Z,0
2018-08-22T01:28:10.644Z,0
2018-08-22T01:28:51.022Z,0
2018-08-22T01:29:31.384Z,0
2018-08-22T01:30:11.772Z,0
2018-08-22T01:30:52.187Z,0
2018-08-22T01:31:32.582Z,0
2018-08-22T01:32:12.970Z,0
2018-08-22T01:32:53.421Z,0
2018-08-22T01:33:33.831Z,0
2018-08-22T01:34:14.179Z,0
2018-08-22T01:34:54.565Z,0
2018-08-22T01:35:34.964Z,0
2018-08-22T01:36:15.430Z,0
2018-08-22T01:36:55.867Z,0
2018-08-22T01:37:36.233Z,0
2018-08-22T01:38:16.632Z,0
2018-08-22T01:38:56.949Z,0
2018-08-22T01:39:37.437Z,0
2018-08-22T01:40:17.840Z,0
2018-08-22T01:40:58.250Z,0
2018-08-22T01:41:38.645Z,0
2018-08-22T01:42:19.118Z,0
2018-08-22T01:42:59.532Z,0
2018-08-22T01:43:39.910Z,0
2018-08-22T01:44:20.287Z,0
2018-08-22T01:45:00.656Z,0
2018-08-22T01:45:41.087Z,0
2018-08-22T01:46:21.581Z,0
2018-08-22T01:47:02.006Z,0
2018-08-22T01:47:42.401Z,0
2018-08-22T01:48:22.798Z,0
2018-08-22T01:50:58.027Z,0
2018-08-22T01:51:38.065Z,0
2018-08-22T01:52:18.476Z,0
2018-08-22T01:52:58.811Z,0
2018-08-22T01:53:39.289Z,0
2018-08-22T01:54:19.625Z,0
2018-08-22T01:55:00.095Z,0
2018-08-22T01:55:40.430Z,0
2018-08-22T01:56:20.843Z,0
2018-08-22T01:57:01.235Z,0
2018-08-22T01:57:41.695Z,0
2018-08-22T01:58:22.104Z,0
2018-08-22T01:59:02.525Z,0
2018-08-22T01:59:42.878Z,0
2018-08-22T02:00:23.315Z,0
2018-08-22T02:01:03.711Z,0
2018-08-22T02:01:44.116Z,0
2018-08-22T02:02:24.498Z,0
2018-08-22T02:03:04.945Z,0
2018-08-22T02:03:45.383Z,0
2018-08-22T02:04:25.735Z,0
2018-08-22T02:05:06.170Z,0
2018-08-22T02:05:46.528Z,0
2018-08-22T02:06:26.910Z,0
2018-08-22T02:07:07.339Z,0
2018-08-22T02:07:47.744Z,0
2018-08-22T02:08:28.214Z,0
2018-08-22T02:09:08.533Z,0
2018-08-22T02:09:48.984Z,0
2018-08-22T02:10:29.323Z,0
2018-08-22T02:11:09.762Z,0
2018-08-22T02:11:50.153Z,0
2018-08-22T02:12:30.505Z,0
2018-08-22T02:13:10.959Z,0
2018-08-22T02:13:51.353Z,0
2018-08-22T02:14:31.726Z,0
2018-08-22T02:15:12.171Z,0
2018-08-22T02:15:52.515Z,0
2018-08-22T02:16:32.925Z,0
2018-08-22T02:17:13.315Z,0
2018-08-22T02:17:53.748Z,0
2018-08-22T02:18:34.115Z,0
2018-08-22T02:19:14.519Z,0
2018-08-22T02:19:54.897Z,0
2018-08-22T02:20:35.344Z,0
2018-08-22T02:21:15.690Z,0
2018-08-22T02:21:56.123Z,0
2018-08-22T02:22:36.501Z,0
2018-08-22T02:23:16.925Z,0
2018-08-22T02:23:57.328Z,0
2018-08-22T02:24:37.695Z,0
2018-08-22T02:25:18.190Z,0
2018-08-22T02:25:58.540Z,0
2018-08-22T02:26:38.899Z,0
2018-08-22T02:27:19.261Z,0
2018-08-22T02:27:59.731Z,0
2018-08-22T02:28:40.042Z,0
2018-08-22T02:29:20.493Z,0
2018-08-22T02:30:00.886Z,0
2018-08-22T02:30:41.302Z,0
2018-08-22T02:31:21.707Z,0
2018-08-22T02:32:02.122Z,0
2018-08-22T02:32:42.488Z,0
2018-08-22T02:33:22.864Z,0
2018-08-22T02:34:03.263Z,0
2018-08-22T02:34:43.670Z,0
2018-08-22T02:35:24.061Z,0
2018-08-22T02:36:04.444Z,0
2018-08-22T02:36:44.872Z,0
2018-08-22T02:37:25.254Z,0
2018-08-22T02:38:05.666Z,0
2018-08-22T02:38:46.019Z,0
2018-08-22T02:39:26.404Z,0
2018-08-22T02:40:06.864Z,0
2018-08-22T02:40:47.240Z,0
2018-08-22T02:41:27.625Z,0
2018-08-22T02:42:08.063Z,0
2018-08-22T02:42:48.451Z,0
2018-08-22T02:43:28.853Z,0
2018-08-22T02:44:09.259Z,0
2018-08-22T02:44:49.625Z,0
2018-08-22T02:45:30.057Z,0
2018-08-22T02:46:10.466Z,0
2018-08-22T02:46:50.907Z,0
2018-08-22T02:47:31.245Z,0
2018-08-22T02:48:11.661Z,0
2018-08-22T02:48:52.043Z,0
2018-08-22T02:49:32.509Z,0
2018-08-22T02:50:12.959Z,0
2018-08-22T02:50:53.304Z,0
2018-08-22T02:51:33.731Z,0
2018-08-22T02:52:14.135Z,0
2018-08-22T02:52:54.516Z,0
2018-08-22T02:53:34.955Z,0
2018-08-22T02:54:15.334Z,0
2018-08-22T02:54:55.798Z,0
2018-08-22T02:55:36.200Z,0
2018-08-22T02:56:16.547Z,0
2018-08-22T02:56:56.984Z,0
2018-08-22T02:57:37.411Z,0
2018-08-22T02:58:17.878Z,0
2018-08-22T02:58:58.228Z,0
2018-08-22T02:59:38.697Z,0
2018-08-22T03:00:19.091Z,0
2018-08-22T03:00:59.471Z,0
2018-08-22T03:01:39.907Z,0
2018-08-22T03:02:20.343Z,0
2018-08-22T03:03:00.708Z,0
2018-08-22T03:03:41.077Z,0
2018-08-22T03:04:21.526Z,0
2018-08-22T03:05:01.892Z,0
2018-08-22T03:05:42.284Z,0
2018-08-22T03:06:22.681Z,0
2018-08-22T03:07:03.064Z,0
2018-08-22T03:07:43.536Z,0
2018-08-22T03:08:23.909Z,0
2018-08-22T03:09:04.239Z,0
2018-08-22T03:09:44.715Z,0
2018-08-22T03:10:25.085Z,0
2018-08-22T03:11:05.516Z,0
2018-08-22T03:11:45.933Z,0
2018-08-22T03:12:26.323Z,0
2018-08-22T03:13:06.752Z,0
2018-08-22T03:13:47.187Z,0
2018-08-22T03:14:27.569Z,0
2018-08-22T03:15:07.982Z,0
2018-08-22T03:15:48.408Z,0
2018-08-22T03:16:28.746Z,0
2018-08-22T03:17:09.176Z,0
2018-08-22T03:17:49.628Z,0
2018-08-22T03:18:29.989Z,0
2018-08-22T03:19:10.522Z,0
2018-08-22T03:19:50.935Z,0
2018-08-22T03:20:31.291Z,0
2018-08-22T03:21:11.695Z,0
2018-08-22T03:21:52.124Z,0
2018-08-22T03:22:32.525Z,0
2018-08-22T03:23:12.961Z,0
2018-08-22T03:23:53.346Z,0
2018-08-22T03:24:33.733Z,0
2018-08-22T03:25:14.123Z,0
2018-08-22T03:25:54.571Z,0
2018-08-22T03:26:34.994Z,0
2018-08-22T03:27:15.350Z,0
2018-08-22T03:27:55.770Z,0
2018-08-22T03:28:36.189Z,0
2018-08-22T03:29:16.651Z,0
2018-08-22T03:29:57.029Z,0
2018-08-22T03:30:37.478Z,0
2018-08-22T03:31:17.899Z,0
2018-08-22T03:31:58.256Z,0
2018-08-22T03:32:38.636Z,0
2018-08-22T03:33:19.054Z,0
2018-08-22T03:33:59.479Z,0
2018-08-22T03:34:39.874Z,0
2018-08-22T03:35:20.280Z,0
2018-08-22T03:36:00.678Z,0
2018-08-22T03:36:41.074Z,0
2018-08-22T03:37:21.491Z,0
2018-08-22T03:38:01.875Z,0
2018-08-22T03:38:42.297Z,0
2018-08-22T03:39:22.712Z,0
2018-08-22T03:40:03.185Z,0
2018-08-22T03:40:43.521Z,0
2018-08-22T03:41:24.015Z,0
2018-08-22T03:42:04.455Z,0
2018-08-22T03:42:44.855Z,0
2018-08-22T03:43:25.274Z,0
2018-08-22T03:44:05.648Z,0
2018-08-22T03:44:46.065Z,0
2018-08-22T03:45:26.478Z,0
2018-08-22T03:46:06.933Z,0
2018-08-22T03:46:47.380Z,0
2018-08-22T03:47:27.773Z,0
2018-08-22T03:48:08.232Z,0
2018-08-22T03:48:48.641Z,0
2018-08-22T03:49:29.116Z,0
2018-08-22T03:50:09.565Z,0
2018-08-22T03:50:49.973Z,0
2018-08-22T03:51:30.382Z,0
2018-08-22T03:52:10.793Z,0
2018-08-22T03:52:51.156Z,0
2018-08-22T03:53:31.885Z,0
2018-08-22T03:54:12.289Z,0
2018-08-22T03:54:52.621Z,0
2018-08-22T03:55:33.126Z,0
2018-08-22T03:56:13.511Z,0
2018-08-22T03:56:53.918Z,0
2018-08-22T03:57:34.293Z,0
2018-08-22T03:58:14.714Z,0
2018-08-22T03:58:55.163Z,0
2018-08-22T03:59:35.640Z,0
2018-08-22T04:00:15.942Z,4
2018-08-22T04:00:56.360Z,4
2018-08-22T04:01:36.878Z,0
2018-08-22T04:02:17.273Z,0
2018-08-22T04:02:57.644Z,0
2018-08-22T04:03:38.318Z,4
2018-08-22T04:04:18.706Z,4
2018-08-22T04:04:59.087Z,4
2018-08-22T04:05:39.459Z,4
2018-08-22T04:06:19.892Z,4
2018-08-22T04:07:00.311Z,4
2018-08-22T04:07:40.688Z,8
2018-08-22T04:08:21.062Z,4
2018-08-22T04:09:01.577Z,8
2018-08-22T04:09:42.051Z,8
2018-08-22T04:10:22.441Z,4
2018-08-22T04:11:02.857Z,8
2018-08-22T04:11:43.183Z,8
2018-08-22T04:12:23.650Z,8
2018-08-22T04:13:04.061Z,12
2018-08-22T04:13:44.448Z,12
2018-08-22T04:14:24.972Z,12
2018-08-22T04:16:56.102Z,16
2018-08-22T04:17:36.461Z,20
2018-08-22T04:18:16.889Z,20
2018-08-22T04:18:57.293Z,20
2018-08-22T04:19:37.763Z,24
2018-08-22T04:20:18.182Z,24
2018-08-22T04:20:58.613Z,28
2018-08-22T04:21:38.962Z,32
2018-08-22T04:22:19.388Z,32
2018-08-22T04:22:59.842Z,40
2018-08-22T04:23:40.247Z,40
2018-08-22T04:24:20.675Z,44
2018-08-22T04:25:01.150Z,48
2018-08-22T04:25:41.513Z,52
2018-08-22T04:26:21.941Z,56
2018-08-22T04:27:02.320Z,56
2018-08-22T04:27:42.772Z,60
2018-08-22T05:07:55.384Z,1756
2018-08-22T05:08:47.146Z,1840
2018-08-22T05:09:27.563Z,1948
2018-08-22T05:10:09.665Z,2060
2018-08-22T05:10:50.074Z,2132
2018-08-22T05:11:30.457Z,2176
2018-08-22T05:12:14.427Z,2360
2018-08-22T05:12:58.405Z,2452
2018-08-22T05:13:39.844Z,2584
2018-08-22T05:14:21.015Z,2720
2018-08-22T05:15:01.615Z,2808
2018-08-22T05:15:41.985Z,3148
2018-08-22T05:16:23.919Z,3200
2018-08-22T05:17:05.267Z,3220
2018-08-22T05:17:47.319Z,3244
2018-08-22T05:20:31.718Z,3788
2018-08-22T05:24:37.998Z,4756
2018-08-22T05:25:18.309Z,4844
2018-08-22T05:25:58.769Z,5192
2018-08-22T05:26:39.612Z,5436
2018-08-22T05:27:22.174Z,5700
2018-08-22T05:28:02.883Z,5788
2018-08-22T05:28:43.332Z,5940
2018-08-22T05:29:23.593Z,5932
2018-08-22T05:30:04.271Z,6168
2018-08-22T05:30:44.603Z,6284
2018-08-22T05:31:24.910Z,6384
2018-08-22T05:32:05.366Z,6460
2018-08-22T05:32:45.846Z,6628
2018-08-22T05:33:26.221Z,6656
2018-08-22T05:34:06.807Z,6548
2018-08-22T05:34:47.126Z,6876
2018-08-22T05:35:27.508Z,7392
2018-08-22T05:36:07.890Z,7604
2018-08-22T05:36:50.647Z,7900
2018-08-22T05:37:31.036Z,8208
2018-08-22T05:38:11.435Z,8576
2018-08-22T05:40:48.134Z,9596
2018-08-22T05:41:28.452Z,9928
2018-08-22T05:42:08.895Z,10104
2018-08-22T05:42:49.279Z,10064
2018-08-22T05:43:29.658Z,10060
2018-08-22T05:44:10.531Z,10204
2018-08-22T05:44:51.137Z,10592
2018-08-22T05:45:31.575Z,10896
2018-08-22T05:46:12.352Z,10944
2018-08-22T05:46:53.229Z,11088
2018-08-22T05:47:34.196Z,10972
2018-08-22T05:48:14.315Z,11584
2018-08-22T05:48:54.836Z,11904
2018-08-22T05:49:35.216Z,12352
2018-08-22T05:50:15.576Z,12608
2018-08-22T05:50:55.986Z,12800
2018-08-22T05:51:36.336Z,13024
2018-08-22T05:52:16.867Z,13056
2018-08-22T05:52:58.393Z,13248
2018-08-22T05:53:38.123Z,13664
2018-08-22T05:54:18.556Z,13824
2018-08-22T05:54:59.635Z,13632
2018-08-22T05:55:41.309Z,13824
2018-08-22T05:56:21.056Z,13984
2018-08-22T05:57:01.449Z,13856
2018-08-22T05:57:42.008Z,13280
2018-08-22T05:58:22.409Z,14112
2018-08-22T05:59:02.838Z,14496
2018-08-22T05:59:43.340Z,14400
2018-08-22T06:00:23.759Z,14528
2018-08-22T06:01:04.177Z,14688
2018-08-22T06:01:44.632Z,15008
2018-08-22T06:02:25.175Z,15520
2018-08-22T06:03:05.913Z,15872
2018-08-22T06:03:46.464Z,16032
2018-08-22T06:04:26.929Z,16032
2018-08-22T06:05:07.349Z,15968
2018-08-22T06:05:48.817Z,16224
2018-08-22T06:06:28.697Z,16768
2018-08-22T06:07:09.381Z,17024
2018-08-22T06:07:49.940Z,16864
2018-08-22T06:08:30.347Z,16480
2018-08-22T06:09:10.866Z,16608
2018-08-22T06:09:51.463Z,17088
2018-08-22T06:10:31.939Z,18336
2018-08-22T06:11:12.377Z,18432
2018-08-22T06:11:52.925Z,18944
2018-08-22T06:12:34.449Z,19200
2018-08-22T06:13:14.332Z,18144
2018-08-22T06:13:55.009Z,19040
2018-08-22T06:14:35.932Z,19968
2018-08-22T06:15:17.546Z,20480
2018-08-22T06:15:59.098Z,20288
2018-08-22T06:16:42.516Z,20480
2018-08-22T06:17:22.353Z,17024
2018-08-22T06:18:04.546Z,18976
2018-08-22T06:18:45.721Z,20384
2018-08-22T06:19:26.270Z,20416
2018-08-22T06:20:06.581Z,20320
2018-08-22T06:20:47.092Z,19136
2018-08-22T06:21:28.288Z,19616
2018-08-22T06:22:13.317Z,18464
2018-08-22T06:22:53.757Z,20160
2018-08-22T06:23:34.835Z,21632
2018-08-22T06:24:15.309Z,22080
2018-08-22T06:24:56.042Z,21888
2018-08-22T06:25:36.642Z,22400
2018-08-22T06:26:17.218Z,22688
2018-08-22T06:26:58.309Z,22688
2018-08-22T06:27:38.628Z,22208
2018-08-22T06:28:19.201Z,19872
2018-08-22T06:28:59.621Z,21568
2018-08-22T06:29:40.075Z,25248
2018-08-22T06:30:20.500Z,26432
2018-08-22T06:31:00.997Z,22336
2018-08-22T06:31:41.493Z,19584
2018-08-22T06:32:22.283Z,19552
2018-08-22T06:33:03.011Z,18944
2018-08-22T06:33:43.541Z,20320
2018-08-22T06:34:25.327Z,22496
2018-08-22T06:35:05.418Z,21280
2018-08-22T06:35:46.938Z,20320
2018-08-22T06:36:28.356Z,19104
2018-08-22T06:37:09.563Z,18432
2018-08-22T06:37:49.528Z,18176
2018-08-22T06:38:30.050Z,18592
2018-08-22T06:39:10.879Z,17952
2018-08-22T06:39:51.405Z,15872
2018-08-22T06:40:31.852Z,13236
2018-08-22T06:41:12.331Z,14368
2018-08-22T06:41:52.772Z,15584
2018-08-22T06:42:33.302Z,13652
2018-08-22T06:43:13.699Z,13072
2018-08-22T06:43:54.090Z,14528
2018-08-22T06:44:34.566Z,13500
2018-08-22T06:45:15.099Z,14048
2018-08-22T06:47:40.833Z,12932
2018-08-22T06:48:31.909Z,9488
2018-08-22T06:49:14.737Z,10040
2018-08-22T06:49:54.897Z,11656
2018-08-22T06:50:35.349Z,13004
2018-08-22T06:51:16.004Z,13932
2018-08-22T06:51:56.506Z,13496
2018-08-22T06:52:36.873Z,12788
2018-08-22T06:53:17.350Z,12492
2018-08-22T06:53:57.739Z,10948
2018-08-22T06:54:38.133Z,11104
2018-08-22T06:55:18.631Z,10164
2018-08-22T06:55:59.029Z,10508
2018-08-22T06:56:39.439Z,11408
2018-08-22T06:57:19.847Z,11636
2018-08-22T06:58:00.321Z,11468
2018-08-22T06:58:40.693Z,12540
2018-08-22T06:59:21.080Z,12224
2018-08-22T07:00:01.512Z,12448
2018-08-22T07:00:41.991Z,12332
2018-08-22T07:01:22.429Z,11276
2018-08-22T07:02:02.787Z,10616
2018-08-22T07:02:43.231Z,9900
2018-08-22T07:03:23.701Z,9696
2018-08-22T07:04:04.137Z,10472
2018-08-22T07:04:44.479Z,10960
2018-08-22T07:05:26.275Z,10884
2018-08-22T07:06:06.892Z,12796
2018-08-22T07:06:47.157Z,12616
2018-08-22T07:07:27.977Z,12720
2018-08-22T07:08:08.241Z,13572
2018-08-22T07:08:48.676Z,14352
2018-08-22T07:09:29.090Z,14416
2018-08-22T07:10:09.499Z,14308
2018-08-22T07:10:49.951Z,14316
2018-08-22T07:11:30.322Z,13576
2018-08-22T07:12:10.798Z,9564
2018-08-22T07:12:51.464Z,11240
2018-08-22T07:13:31.793Z,11056
2018-08-22T07:14:12.471Z,10956
2018-08-22T07:14:52.679Z,11184
2018-08-22T07:15:33.244Z,10672
2018-08-22T07:16:13.853Z,10784
2018-08-22T07:16:54.403Z,10664
2018-08-22T07:22:01.986Z,10408
2018-08-22T07:22:42.643Z,10232
2018-08-22T07:23:23.000Z,10044
2018-08-22T07:24:03.753Z,9688
2018-08-22T07:24:44.244Z,8516
2018-08-22T07:25:24.988Z,8240
2018-08-22T07:27:36.279Z,7624
2018-08-22T07:28:29.607Z,6732
2018-08-22T07:29:21.694Z,6264
2018-08-22T07:31:20.204Z,5568
2018-08-22T07:32:01.620Z,5648
2018-08-22T07:32:42.607Z,5584
2018-08-22T07:33:23.695Z,5660
2018-08-22T07:34:03.519Z,5884
2018-08-22T07:34:44.605Z,6064
2018-08-22T07:35:24.792Z,5940
2018-08-22T07:36:05.488Z,6028
2018-08-22T07:36:45.962Z,6472
2018-08-22T07:37:26.677Z,6396
2018-08-22T07:38:07.107Z,6504
2018-08-22T07:38:48.609Z,6612
2018-08-22T07:39:28.696Z,5920
2018-08-22T07:40:09.304Z,5676
2018-08-22T07:40:49.828Z,5996
2018-08-22T07:41:30.269Z,6372
2018-08-22T07:42:10.648Z,6440
2018-08-22T07:42:52.225Z,6200
2018-08-22T07:43:32.037Z,6312
2018-08-22T07:44:12.497Z,6344
2018-08-22T07:44:53.029Z,6360
2018-08-22T07:45:33.569Z,6196
2018-08-22T07:46:13.991Z,6068
2018-08-22T07:46:54.546Z,5876
2018-08-22T07:47:35.250Z,5756
2018-08-22T07:48:15.619Z,5620
2018-08-22T07:48:56.318Z,5644
2018-08-22T07:49:36.819Z,5800
2018-08-22T07:50:18.254Z,5800
2018-08-22T07:50:58.620Z,5772
2018-08-22T07:51:39.108Z,5732
2018-08-22T07:52:19.901Z,5680
2018-08-22T07:53:01.319Z,5592
2018-08-22T07:53:44.311Z,5516
2018-08-22T07:54:25.743Z,5440
2018-08-22T07:55:06.373Z,5364
2018-08-22T07:55:47.135Z,5372
2018-08-22T07:56:27.722Z,5352
2018-08-22T07:57:07.638Z,5368
2018-08-22T07:57:48.187Z,5332
2018-08-22T07:58:28.672Z,5320
2018-08-22T07:59:09.910Z,5284
2018-08-22T07:59:50.189Z,5144
2018-08-22T08:00:30.225Z,4956
2018-08-22T08:01:10.828Z,4852
2018-08-22T08:01:51.385Z,4856
2018-08-22T08:02:33.180Z,4900
2018-08-22T08:03:15.148Z,4848
2018-08-22T08:03:56.309Z,4852
2018-08-22T08:04:38.174Z,4860
2018-08-22T08:05:19.695Z,4724
2018-08-22T08:05:59.447Z,4552
2018-08-22T08:06:40.331Z,4600
2018-08-22T08:07:21.635Z,4540
2018-08-22T08:08:01.661Z,4500
2018-08-22T08:08:42.692Z,4492
2018-08-22T08:09:23.277Z,4420
2018-08-22T08:10:03.766Z,4340
2018-08-22T08:10:44.450Z,4360
2018-08-22T08:11:25.391Z,4380
2018-08-22T08:12:07.404Z,4316
2018-08-22T08:12:47.153Z,4280
2018-08-22T08:13:28.136Z,4304
2018-08-22T08:14:08.750Z,4324
2018-08-22T08:14:50.709Z,4404
2018-08-22T08:15:30.645Z,4484
2018-08-22T08:16:11.474Z,4572
2018-08-22T08:16:52.112Z,4492
2018-08-22T08:17:33.203Z,4312
2018-08-22T08:18:14.029Z,4040
2018-08-22T08:18:55.430Z,4012
2018-08-22T08:19:35.871Z,3980
2018-08-22T08:20:16.420Z,3816
2018-08-22T08:20:56.956Z,3804
2018-08-22T08:21:37.676Z,3860
2018-08-22T08:22:19.132Z,4000
2018-08-22T08:22:59.659Z,4140
2018-08-22T08:23:39.550Z,4196
2018-08-22T08:24:20.051Z,4204
2018-08-22T08:25:00.626Z,4176
2018-08-22T08:25:41.082Z,4184
2018-08-22T08:26:21.718Z,4252
2018-08-22T08:27:02.277Z,4272
2018-08-22T08:27:42.776Z,4292
2018-08-22T08:28:23.229Z,4372
2018-08-22T08:29:03.751Z,4428
2018-08-22T08:29:44.349Z,4428
2018-08-22T08:30:25.068Z,4320
2018-08-22T08:31:05.520Z,4208
2018-08-22T08:31:47.924Z,4092
2018-08-22T08:32:28.459Z,4120
2018-08-22T08:33:09.155Z,4292
2018-08-22T08:33:50.648Z,4240
2018-08-22T08:34:30.448Z,4080
2018-08-22T08:35:11.276Z,4000
2018-08-22T08:35:52.882Z,4028
2018-08-22T08:36:33.518Z,4064
2018-08-22T08:37:14.103Z,4036
2018-08-22T08:37:54.994Z,4076
2018-08-22T08:38:35.805Z,3996
2018-08-22T08:39:17.348Z,3996
2018-08-22T08:39:58.699Z,3932
2018-08-22T08:40:39.235Z,3896
2018-08-22T08:41:22.819Z,3932
2018-08-22T08:42:03.585Z,3860
2018-08-22T08:42:44.157Z,3836
2018-08-22T08:43:24.919Z,3756
2018-08-22T08:44:06.183Z,3696
2018-08-22T08:44:46.434Z,3784
2018-08-22T08:45:30.401Z,3704
2018-08-22T08:46:11.221Z,3688
2018-08-22T08:46:51.682Z,3780
2018-08-22T08:47:33.701Z,3772
2018-08-22T08:48:12.585Z,3724
2018-08-22T08:48:54.736Z,3784
2018-08-22T08:49:34.991Z,3784
2018-08-22T08:50:16.679Z,3836
2018-08-22T08:50:57.196Z,3832
2018-08-22T08:51:43.478Z,3820
2018-08-22T08:52:23.805Z,3780
2018-08-22T08:53:05.721Z,3760
2018-08-22T08:53:45.918Z,3764
2018-08-22T08:54:27.738Z,3736
2018-08-22T08:55:08.726Z,3764
2018-08-22T08:55:48.827Z,3832
2018-08-22T08:56:30.713Z,3752
2018-08-22T08:57:12.244Z,3816
2018-08-22T08:57:54.356Z,3864
2018-08-22T08:58:36.110Z,3768
2018-08-22T08:59:19.934Z,3732
2018-08-22T09:00:00.401Z,3664
2018-08-22T09:00:41.744Z,3552
2018-08-22T09:01:22.666Z,3592
2018-08-22T09:02:03.695Z,3504
2018-08-22T09:02:43.956Z,3472
2018-08-22T09:03:25.318Z,3464
2018-08-22T09:04:06.776Z,3416
2018-08-22T09:04:47.692Z,3396
2018-08-22T09:05:29.295Z,3308
2018-08-22T09:06:10.713Z,3336
2018-08-22T09:06:51.720Z,3376
2018-08-22T09:07:32.729Z,3484
2018-08-22T09:08:12.637Z,3444
2018-08-22T09:08:54.056Z,3440
2018-08-22T09:09:35.739Z,3412
2018-08-22T09:10:16.051Z,3440
2018-08-22T09:10:58.346Z,3440
2018-08-22T09:11:39.439Z,3500
2018-08-22T09:12:19.655Z,3484
2018-08-22T09:13:00.553Z,3472
2018-08-22T09:13:42.810Z,3472
2018-08-22T09:14:24.679Z,3344
2018-08-22T09:15:06.238Z,3364
2018-08-22T09:15:47.804Z,3336
2018-08-22T09:16:30.215Z,3436
2018-08-22T09:17:10.475Z,3424
2018-08-22T09:17:51.729Z,3412
2018-08-22T09:18:32.362Z,3404
2018-08-22T09:19:13.764Z,3388
2018-08-22T09:19:55.959Z,3304
2018-08-22T09:21:12.300Z,3272
2018-08-22T09:21:52.943Z,3268
2018-08-22T09:22:33.467Z,3256
2018-08-22T09:23:14.816Z,3228
2018-08-22T09:23:54.501Z,3216
2018-08-22T09:24:36.859Z,3208
2018-08-22T09:25:17.657Z,3200
2018-08-22T09:25:58.543Z,3188
2018-08-22T09:26:39.041Z,3168
2018-08-22T09:27:20.219Z,3148
2018-08-22T09:28:00.970Z,3124
2018-08-22T09:28:43.735Z,3108
2018-08-22T09:29:23.345Z,3084
2018-08-22T09:30:03.938Z,3068
2018-08-22T09:30:44.801Z,3048
2018-08-22T09:34:25.339Z,2964
2018-08-22T09:35:05.861Z,2948
2018-08-22T09:35:46.707Z,2944
2018-08-22T09:36:27.462Z,2924
2018-08-22T09:37:08.109Z,2896
2018-08-22T09:37:49.593Z,2876
2018-08-22T09:38:31.341Z,2856
2018-08-22T09:39:14.489Z,2848
2018-08-22T09:39:56.476Z,2848
2018-08-22T09:40:37.642Z,2836
2018-08-22T09:41:17.806Z,2832
2018-08-22T09:41:59.302Z,2832
2018-08-22T09:42:42.119Z,2812
2018-08-22T09:43:21.815Z,2792
2018-08-22T09:44:02.183Z,2776
2018-08-22T09:44:42.661Z,2760
2018-08-22T09:45:23.221Z,2752
2018-08-22T09:47:42.684Z,2704
2018-08-22T09:48:23.208Z,2672
2018-08-22T09:49:04.726Z,2648
2018-08-22T09:49:44.268Z,2632
2018-08-22T09:50:24.696Z,2616
2018-08-22T09:51:05.470Z,2604
2018-08-22T09:51:45.966Z,2592
2018-08-22T09:52:28.187Z,2580
2018-08-22T09:53:08.845Z,2564
2018-08-22T09:53:51.604Z,2548
2018-08-22T09:54:31.264Z,2536
2018-08-22T09:55:11.821Z,2524
2018-08-22T09:55:52.328Z,2512
2018-08-22T09:56:33.592Z,2504
2018-08-22T09:57:13.473Z,2496
2018-08-22T09:57:53.956Z,2488
2018-08-22T09:58:34.469Z,2476
2018-08-22T09:59:14.883Z,2468
2018-08-22T09:59:55.365Z,2460
2018-08-22T10:00:36.303Z,2448
2018-08-22T10:01:16.973Z,2436
2018-08-22T10:01:58.074Z,2428
2018-08-22T10:02:38.092Z,2416
2018-08-22T10:03:18.780Z,2400
2018-08-22T10:03:59.280Z,2384
2018-08-22T10:04:40.334Z,2380
2018-08-22T10:05:21.213Z,2376
2018-08-22T10:06:02.583Z,2380
2018-08-22T10:06:43.147Z,2380
2018-08-22T10:07:23.629Z,2372
2018-08-22T10:08:04.670Z,2368
2018-08-22T10:08:45.707Z,2360
2018-08-22T10:09:25.962Z,2352
2018-08-22T10:10:06.677Z,2344
2018-08-22T10:10:48.607Z,2340
2018-08-22T10:11:28.143Z,2332
2018-08-22T10:12:08.594Z,2324
2018-08-22T10:12:49.047Z,2308
2018-08-22T10:13:29.522Z,2300
2018-08-22T10:14:09.955Z,2288
2018-08-22T10:14:50.539Z,2280
2018-08-22T10:15:31.596Z,2272
2018-08-22T10:18:00.335Z,2220
2018-08-22T10:18:42.215Z,2212
2018-08-22T10:19:22.993Z,2212
2018-08-22T10:20:04.275Z,2208
2018-08-22T10:20:44.072Z,2208
2018-08-22T10:21:24.657Z,2200
2018-08-22T10:22:06.275Z,2192
2018-08-22T10:22:46.242Z,2176
2018-08-22T10:23:26.755Z,2160
2018-08-22T10:24:07.537Z,2152
2018-08-22T10:24:48.051Z,2144
2018-08-22T10:25:28.679Z,2140
2018-08-22T10:26:09.532Z,2148
2018-08-22T10:26:50.143Z,2136
2018-08-22T10:27:30.760Z,2132
2018-08-22T10:28:11.909Z,2124
2018-08-22T10:28:52.233Z,2116
2018-08-22T10:29:32.797Z,2116
2018-08-22T11:07:35.088Z,1984
2018-08-22T11:08:15.488Z,1980
2018-08-22T11:08:55.866Z,1968